首页
METAR-TAF:

METAR-TAF

机场 :

Ekati, 西北特區, 加拿大

纬度: 64-42N, 经度: 110-37W, 海拔: 469米

METAR: 丢失

时间: 07:52 (14:52 UTC)

预报

该预报发布于1小时和14分钟前的13:38 UTC
预报有效从23日的 14点(UTC)到 23日的 24点(UTC)
风速18节,风向
能見度: 10公里
少量云层高于23000英尺
短暂存在
从 23日的 14点(UTC)到 23日的 22点(UTC)
能見度: 3.2公里
高吹雪, 霾
从 23日的 2200点(UTC)
风速10节,风向
能見度: 10公里
天空无云

TAF: CYOA 231338Z 2314/2324 08018KT P6SM FEW230 TEMPO 2314/2322 2SM BLSN HZ FM232200 08010KT P6SM SKC RMK NXT FCST BY 231900Z

超过4000个机场的气象观测和天气预报(METAR&TAF报告)。

可查询的气象台以黄色和红色小点在地图上表示。

将鼠标移到小点上方,可查看气象台名称。

然后点击查看天气观测和预报。

如需切换地图:点击带黑十字的绿色按钮放大地图;点击带横线的绿色按钮缩小地图;或者点击绿色箭头查看邻近地区的地图。


METAR-TAF: